Terminal Aerodrome Forecast
Issued by NWS Sioux Falls, SD

Home | Current Version | Previous Version | Graphics & Text | Print | Product List | Glossary On
Versions: 1 2 3 4 5 6 7 8 9 10 11 12 13
000
FTUS43 KFSD 152300
TAFSUX
TAF
KSUX 152336Z 1600/1624 16017G24KT P6SM SCT120 BKN250
     FM160500 15015KT P6SM BKN120 WS011/19045KT
     FM161300 18017G24KT P6SM BKN080
     FM161600 24014G19KT P6SM BKN050
     FM161900 30021G34KT P6SM -SHRA OVC020
     FM162300 32021G29KT P6SM BKN025=

USA.gov is the U.S. government's official web portal to all federal, state and local government web resources and services.